createdAt,value
2023-03-24T00:02:14.279Z,25.42
2023-03-24T00:07:17.237Z,24.73
2023-03-24T00:12:19.400Z,22.88
2023-03-24T00:17:25.745Z,23.73
2023-03-24T00:22:28.790Z,24.35
2023-03-24T00:27:31.842Z,24.33
2023-03-24T00:32:34.026Z,24.15
2023-03-24T00:37:38.003Z,21.25
2023-03-24T00:42:41.869Z,21.40
2023-03-24T00:47:45.194Z,21.10
2023-03-24T00:52:49.463Z,20.08
2023-03-24T00:57:51.746Z,20.90
2023-03-24T01:02:57.782Z,17.70
2023-03-24T01:08:04.196Z,18.40
2023-03-24T01:13:07.127Z,21.80
2023-03-24T01:18:10.134Z,21.63
2023-03-24T01:23:17.838Z,22.67
2023-03-24T01:28:25.166Z,24.00
2023-03-24T01:33:27.578Z,26.17
2023-03-24T01:38:29.752Z,26.15
2023-03-24T01:43:34.035Z,25.05
2023-03-24T01:48:42.377Z,24.00
2023-03-24T01:53:56.313Z,24.42
2023-03-24T01:59:04.055Z,23.65
2023-03-24T02:04:08.317Z,24.33
2023-03-24T02:09:12.828Z,22.85
2023-03-24T02:14:15.002Z,21.92
2023-03-24T02:19:38.493Z,20.70
2023-03-24T02:25:07.398Z,22.63
2023-03-24T02:30:24.622Z,21.80
2023-03-24T02:35:59.539Z,21.73
2023-03-24T02:41:21.956Z,23.70
2023-03-24T02:46:33.614Z,23.60
2023-03-24T02:51:42.668Z,26.17
2023-03-24T02:56:53.395Z,24.33
2023-03-24T03:02:07.597Z,24.85
2023-03-24T03:07:12.022Z,23.27
2023-03-24T03:12:15.632Z,24.23
2023-03-24T03:17:23.842Z,22.50
2023-03-24T03:22:33.352Z,21.65
2023-03-24T03:27:39.448Z,23.23
2023-03-24T03:32:54.693Z,23.70
2023-03-24T03:38:00.814Z,21.27
2023-03-24T03:43:04.911Z,21.63
2023-03-24T03:48:07.299Z,21.73
2023-03-24T03:53:10.365Z,21.30
2023-03-24T03:58:12.973Z,19.67
2023-03-24T04:03:45.657Z,19.35
2023-03-24T04:08:57.176Z,19.30
2023-03-24T04:14:35.133Z,17.80
2023-03-24T04:19:56.194Z,17.15
2023-03-24T04:25:04.333Z,18.15
2023-03-24T04:30:37.621Z,17.33
2023-03-24T04:35:50.003Z,15.95
2023-03-24T04:40:56.016Z,15.60
2023-03-24T04:45:58.304Z,15.52
2023-03-24T04:51:03.843Z,14.45
2023-03-24T04:56:24.221Z,13.65
2023-03-24T05:01:30.813Z,14.02
2023-03-24T05:06:33.797Z,12.20
2023-03-24T05:11:35.969Z,12.90
2023-03-24T05:16:38.330Z,13.27
2023-03-24T05:21:40.595Z,13.70
2023-03-24T05:26:42.747Z,13.55
2023-03-24T05:31:45.443Z,13.10
2023-03-24T05:36:47.601Z,13.45
2023-03-24T05:41:49.815Z,12.63
2023-03-24T05:46:51.905Z,13.35
2023-03-24T05:51:54.073Z,14.48
2023-03-24T05:56:56.401Z,14.13
2023-03-24T06:01:58.790Z,14.57
2023-03-24T06:07:01.235Z,15.23
2023-03-24T06:12:04.797Z,16.45
2023-03-24T06:17:08.521Z,16.13
2023-03-24T06:22:10.762Z,15.48
2023-03-24T06:27:14.564Z,16.63
2023-03-24T06:32:21.723Z,16.08
2023-03-24T06:37:24.436Z,16.05
2023-03-24T06:42:27.487Z,16.30
2023-03-24T06:47:30.094Z,17.45
2023-03-24T06:52:32.324Z,19.27
2023-03-24T06:57:34.497Z,18.63
2023-03-24T07:02:36.723Z,20.67
2023-03-24T07:08:16.733Z,20.50
2023-03-24T07:13:03.645Z,19.92
2023-03-24T07:18:05.942Z,19.77
2023-03-24T07:23:08.369Z,20.75
2023-03-24T07:28:10.805Z,20.70
2023-03-24T07:33:12.984Z,21.13
2023-03-24T07:38:15.144Z,21.50
2023-03-24T07:43:17.535Z,23.48
2023-03-24T07:48:20.536Z,23.58
2023-03-24T07:53:23.548Z,24.42
2023-03-24T07:58:27.231Z,24.75
2023-03-24T08:03:30.129Z,25.77
2023-03-24T08:08:32.561Z,24.27
2023-03-24T08:13:34.785Z,24.60
2023-03-24T08:18:39.160Z,23.50
2023-03-24T08:23:41.822Z,23.48
2023-03-24T08:28:44.107Z,22.48
2023-03-24T08:33:46.576Z,17.33
2023-03-24T08:38:53.039Z,15.02
2023-03-24T08:43:55.158Z,16.05
2023-03-24T08:48:58.397Z,14.18
2023-03-24T08:54:02.033Z,15.85
2023-03-24T08:59:04.927Z,12.98
2023-03-24T09:04:07.057Z,14.93
2023-03-24T09:09:09.190Z,12.43
2023-03-24T09:14:11.288Z,11.73
2023-03-24T09:19:13.489Z,10.73
2023-03-24T09:24:15.996Z,10.60
2023-03-24T09:29:19.195Z,10.10
2023-03-24T09:34:21.936Z,10.18
2023-03-24T09:39:24.214Z,11.18
2023-03-24T09:44:32.016Z,11.02
2023-03-24T09:49:39.016Z,10.40
2023-03-24T09:54:56.574Z,9.98
2023-03-24T09:59:58.923Z,9.63
2023-03-24T10:05:01.256Z,9.55
2023-03-24T10:10:15.509Z,10.00
2023-03-24T10:15:40.381Z,9.40
2023-03-24T10:20:52.017Z,9.02
2023-03-24T10:26:29.560Z,9.05
2023-03-24T10:31:35.264Z,9.90
2023-03-24T10:36:38.773Z,10.15
2023-03-24T10:41:42.701Z,11.35
2023-03-24T10:46:48.634Z,8.13
2023-03-24T10:51:53.153Z,8.07
2023-03-24T10:56:58.468Z,6.97
2023-03-24T11:02:15.937Z,7.28
2023-03-24T11:07:37.659Z,6.38
2023-03-24T11:13:03.224Z,6.70
2023-03-24T11:18:11.213Z,6.45
2023-03-24T11:23:29.962Z,6.63
2023-03-24T11:28:39.096Z,6.97
2023-03-24T11:34:03.198Z,6.75
2023-03-24T11:39:21.712Z,7.78
2023-03-24T11:44:25.967Z,6.72
2023-03-24T11:49:37.252Z,6.93
2023-03-24T11:54:40.043Z,6.80
2023-03-24T12:00:09.257Z,6.72
2023-03-24T12:05:29.328Z,6.57
2023-03-24T12:10:57.292Z,6.80
2023-03-24T12:16:21.937Z,6.45
2023-03-24T12:21:50.244Z,6.60
2023-03-24T12:26:58.819Z,7.28
2023-03-24T12:32:54.420Z,7.15
2023-03-24T12:38:08.988Z,6.32
2023-03-24T12:43:55.260Z,6.63
2023-03-24T12:49:04.181Z,6.43
2023-03-24T12:54:26.315Z,6.22
2023-03-24T12:59:36.796Z,6.07
2023-03-24T13:04:43.061Z,5.97
2023-03-24T13:10:05.397Z,5.53
2023-03-24T13:15:19.143Z,5.97
2023-03-24T13:20:54.180Z,5.78
2023-03-24T13:26:05.191Z,4.82
2023-03-24T13:31:09.853Z,5.07
2023-03-24T13:36:30.438Z,5.18
2023-03-24T13:41:38.018Z,5.10
2023-03-24T13:46:42.121Z,5.10
2023-03-24T13:51:46.794Z,4.85
2023-03-24T13:57:04.121Z,4.65
2023-03-24T14:02:31.833Z,4.85
2023-03-24T14:07:45.172Z,4.55
2023-03-24T14:12:59.336Z,4.20
2023-03-24T14:18:26.265Z,4.50
2023-03-24T14:23:47.132Z,4.53
2023-03-24T14:28:57.812Z,3.97
2023-03-24T14:34:17.619Z,3.58
2023-03-24T14:39:48.008Z,3.65
2023-03-24T14:44:51.577Z,4.18
2023-03-24T14:49:58.003Z,4.18
2023-03-24T14:55:06.329Z,3.67
2023-03-24T15:00:36.975Z,4.05
2023-03-24T15:05:39.200Z,4.82
2023-03-24T15:10:47.305Z,5.22
2023-03-24T15:15:49.683Z,4.63
2023-03-24T15:20:53.364Z,4.57
2023-03-24T15:25:56.351Z,4.60
2023-03-24T15:31:02.637Z,4.40
2023-03-24T15:36:13.636Z,4.72
2023-03-24T15:41:18.197Z,4.38
2023-03-24T15:46:31.983Z,4.57
2023-03-24T15:51:52.136Z,5.35
2023-03-24T15:57:12.251Z,6.07
2023-03-24T16:02:26.471Z,6.82
2023-03-24T16:07:35.893Z,7.43
2023-03-24T16:12:38.376Z,6.72
2023-03-24T16:17:40.925Z,6.32
2023-03-24T16:22:43.085Z,5.90
2023-03-24T16:27:45.476Z,5.88
2023-03-24T16:32:48.063Z,5.28
2023-03-24T16:37:50.896Z,5.90
2023-03-24T16:42:53.808Z,6.68
2023-03-24T16:47:56.090Z,6.72
2023-03-24T16:52:58.336Z,7.28
2023-03-24T16:58:00.809Z,7.18
2023-03-24T17:03:04.733Z,7.38
2023-03-24T17:08:07.227Z,8.63
2023-03-24T17:13:16.919Z,8.00
2023-03-24T17:18:19.978Z,8.38
2023-03-24T17:23:22.316Z,7.90
2023-03-24T17:28:24.437Z,8.98
2023-03-24T17:33:26.590Z,9.23
2023-03-24T17:38:28.866Z,8.90
2023-03-24T17:43:31.566Z,9.23
2023-03-24T17:48:34.871Z,9.57
2023-03-24T17:53:37.080Z,8.45
2023-03-24T17:58:39.308Z,9.75
2023-03-24T18:03:43.241Z,10.38
2023-03-24T18:08:51.628Z,10.73
2023-03-24T18:13:53.765Z,9.13
2023-03-24T18:18:56.106Z,8.93
2023-03-24T18:23:58.585Z,9.82
2023-03-24T18:29:01.174Z,11.38
2023-03-24T18:34:04.291Z,10.60
2023-03-24T18:39:08.996Z,11.82
2023-03-24T18:44:15.555Z,11.85
2023-03-24T18:49:18.045Z,10.98
2023-03-24T18:54:20.133Z,9.98
2023-03-24T18:59:22.427Z,10.52
2023-03-24T19:04:25.734Z,9.95
2023-03-24T19:09:29.304Z,9.75
2023-03-24T19:14:31.940Z,9.88
2023-03-24T19:19:34.210Z,10.85
2023-03-24T19:24:36.466Z,10.70
2023-03-24T19:29:38.630Z,10.93
2023-03-24T19:34:40.718Z,13.20
2023-03-24T19:39:42.899Z,11.68
2023-03-24T19:44:45.203Z,13.60
2023-03-24T19:49:47.810Z,12.05
2023-03-24T19:54:51.131Z,11.70
2023-03-24T19:59:53.380Z,11.90
2023-03-24T20:04:55.758Z,12.60
2023-03-24T20:09:57.979Z,12.95
2023-03-24T20:15:00.076Z,14.88
2023-03-24T20:20:02.349Z,12.48
2023-03-24T20:25:05.207Z,13.88
2023-03-24T20:30:08.726Z,13.70
2023-03-24T20:35:11.619Z,12.20
2023-03-24T20:40:13.860Z,13.68
2023-03-24T20:45:16.303Z,12.27
2023-03-24T20:50:19.469Z,12.93
2023-03-24T20:55:21.943Z,13.90
2023-03-24T21:00:24.678Z,14.85
2023-03-24T21:05:27.557Z,14.38
2023-03-24T21:10:30.452Z,14.68
2023-03-24T21:15:32.562Z,14.30
2023-03-24T21:20:34.790Z,14.18
2023-03-24T21:25:37.831Z,15.13
2023-03-24T21:30:40.277Z,14.52
2023-03-24T21:35:42.448Z,14.77
2023-03-24T21:40:45.093Z,15.80
2023-03-24T21:45:54.120Z,15.27
2023-03-24T21:50:57.842Z,16.17
2023-03-24T21:56:04.916Z,15.95
2023-03-24T22:01:07.707Z,17.45
2023-03-24T22:06:11.235Z,16.67
2023-03-24T22:11:16.469Z,15.73
2023-03-24T22:16:18.666Z,15.75
2023-03-24T22:21:21.555Z,15.38
2023-03-24T22:26:23.804Z,14.80
2023-03-24T22:31:26.432Z,15.73
2023-03-24T22:36:28.573Z,15.45
2023-03-24T22:41:30.711Z,16.88
2023-03-24T22:46:32.830Z,20.27
2023-03-24T22:51:37.185Z,22.35
2023-03-24T22:56:39.382Z,18.83
2023-03-24T23:01:41.889Z,17.98
2023-03-24T23:06:45.932Z,18.25
2023-03-24T23:11:48.007Z,19.23
2023-03-24T23:16:50.227Z,17.38
2023-03-24T23:21:53.393Z,17.65
2023-03-24T23:26:56.380Z,19.67
2023-03-24T23:31:58.614Z,19.40
2023-03-24T23:37:05.362Z,20.05
2023-03-24T23:42:07.500Z,18.17
2023-03-24T23:47:09.600Z,19.27
2023-03-24T23:52:11.866Z,18.83
2023-03-24T23:57:16.220Z,18.35
